sensor_id;sensor_type;location;lat;lon;timestamp;P1;durP1;ratioP1;P2;durP2;ratioP2
35084;SDS011;21267;51.032;6.998;2022-12-07T00:01:34;33.72;;;20.92;;
35084;SDS011;21267;51.032;6.998;2022-12-07T00:04:05;26.77;;;17.55;;
35084;SDS011;21267;51.032;6.998;2022-12-07T00:06:33;32.78;;;22.25;;
35084;SDS011;21267;51.032;6.998;2022-12-07T00:09:03;29.00;;;17.77;;
35084;SDS011;21267;51.032;6.998;2022-12-07T00:11:33;27.83;;;20.25;;
35084;SDS011;21267;51.032;6.998;2022-12-07T00:14:00;26.60;;;18.00;;
35084;SDS011;21267;51.032;6.998;2022-12-07T00:16:30;25.33;;;17.25;;
35084;SDS011;21267;51.032;6.998;2022-12-07T00:18:58;31.45;;;22.92;;
35084;SDS011;21267;51.032;6.998;2022-12-07T00:21:26;37.90;;;24.13;;
35084;SDS011;21267;51.032;6.998;2022-12-07T00:23:58;40.50;;;26.92;;
35084;SDS011;21267;51.032;6.998;2022-12-07T00:26:29;30.17;;;19.58;;
35084;SDS011;21267;51.032;6.998;2022-12-07T00:28:59;32.60;;;22.20;;
35084;SDS011;21267;51.032;6.998;2022-12-07T00:31:29;33.10;;;22.00;;
35084;SDS011;21267;51.032;6.998;2022-12-07T00:34:06;35.78;;;25.02;;
35084;SDS011;21267;51.032;6.998;2022-12-07T00:36:33;35.58;;;22.42;;
35084;SDS011;21267;51.032;6.998;2022-12-07T00:39:00;34.75;;;25.52;;
35084;SDS011;21267;51.032;6.998;2022-12-07T00:41:27;37.70;;;21.73;;
35084;SDS011;21267;51.032;6.998;2022-12-07T00:43:55;36.92;;;25.23;;
35084;SDS011;21267;51.032;6.998;2022-12-07T00:46:23;32.23;;;22.93;;
35084;SDS011;21267;51.032;6.998;2022-12-07T00:48:51;36.17;;;25.00;;
35084;SDS011;21267;51.032;6.998;2022-12-07T00:51:19;34.60;;;23.25;;
35084;SDS011;21267;51.032;6.998;2022-12-07T00:53:47;34.25;;;23.70;;
35084;SDS011;21267;51.032;6.998;2022-12-07T01:01:38;23.65;;;16.30;;
35084;SDS011;21267;51.032;6.998;2022-12-07T01:04:05;32.13;;;21.75;;
35084;SDS011;21267;51.032;6.998;2022-12-07T01:06:32;32.45;;;24.10;;
35084;SDS011;21267;51.032;6.998;2022-12-07T01:08:58;31.08;;;23.00;;
35084;SDS011;21267;51.032;6.998;2022-12-07T01:11:26;30.93;;;20.90;;
35084;SDS011;21267;51.032;6.998;2022-12-07T01:13:55;33.22;;;23.77;;
35084;SDS011;21267;51.032;6.998;2022-12-07T01:16:25;33.45;;;22.20;;
35084;SDS011;21267;51.032;6.998;2022-12-07T01:18:54;32.70;;;23.42;;
35084;SDS011;21267;51.032;6.998;2022-12-07T01:23:53;28.88;;;20.88;;
35084;SDS011;21267;51.032;6.998;2022-12-07T01:26:22;33.30;;;23.50;;
35084;SDS011;21267;51.032;6.998;2022-12-07T01:28:50;28.02;;;20.92;;
35084;SDS011;21267;51.032;6.998;2022-12-07T01:31:18;30.43;;;22.47;;
35084;SDS011;21267;51.032;6.998;2022-12-07T01:33:47;28.65;;;21.25;;
35084;SDS011;21267;51.032;6.998;2022-12-07T01:36:50;35.97;;;22.60;;
35084;SDS011;21267;51.032;6.998;2022-12-07T01:39:09;34.05;;;25.40;;
35084;SDS011;21267;51.032;6.998;2022-12-07T01:41:38;35.78;;;24.15;;
35084;SDS011;21267;51.032;6.998;2022-12-07T01:46:43;26.60;;;19.80;;
35084;SDS011;21267;51.032;6.998;2022-12-07T01:49:18;36.78;;;24.27;;
35084;SDS011;21267;51.032;6.998;2022-12-07T01:54:53;36.85;;;27.25;;
35084;SDS011;21267;51.032;6.998;2022-12-07T01:57:22;29.70;;;20.70;;
35084;SDS011;21267;51.032;6.998;2022-12-07T01:59:49;33.20;;;20.33;;
35084;SDS011;21267;51.032;6.998;2022-12-07T02:02:27;29.02;;;19.50;;
35084;SDS011;21267;51.032;6.998;2022-12-07T02:04:58;37.60;;;26.55;;
35084;SDS011;21267;51.032;6.998;2022-12-07T02:07:26;37.35;;;24.98;;
35084;SDS011;21267;51.032;6.998;2022-12-07T02:09:55;26.40;;;18.27;;
35084;SDS011;21267;51.032;6.998;2022-12-07T02:12:21;39.78;;;27.50;;
35084;SDS011;21267;51.032;6.998;2022-12-07T02:14:50;37.55;;;24.52;;
35084;SDS011;21267;51.032;6.998;2022-12-07T02:28:28;38.22;;;27.25;;
35084;SDS011;21267;51.032;6.998;2022-12-07T02:30:58;38.70;;;25.58;;
35084;SDS011;21267;51.032;6.998;2022-12-07T02:33:44;38.35;;;26.63;;
35084;SDS011;21267;51.032;6.998;2022-12-07T02:38:55;42.53;;;29.40;;
35084;SDS011;21267;51.032;6.998;2022-12-07T02:41:28;26.38;;;15.32;;
35084;SDS011;21267;51.032;6.998;2022-12-07T02:43:59;34.97;;;23.33;;
35084;SDS011;21267;51.032;6.998;2022-12-07T02:46:29;37.88;;;23.85;;
35084;SDS011;21267;51.032;6.998;2022-12-07T02:49:04;39.28;;;23.15;;
35084;SDS011;21267;51.032;6.998;2022-12-07T02:51:39;39.60;;;25.58;;
35084;SDS011;21267;51.032;6.998;2022-12-07T02:54:14;40.10;;;28.17;;
35084;SDS011;21267;51.032;6.998;2022-12-07T03:10:33;42.72;;;28.98;;
35084;SDS011;21267;51.032;6.998;2022-12-07T03:18:34;41.17;;;29.83;;
35084;SDS011;21267;51.032;6.998;2022-12-07T03:21:08;44.17;;;30.90;;
35084;SDS011;21267;51.032;6.998;2022-12-07T03:23:40;41.85;;;31.63;;
35084;SDS011;21267;51.032;6.998;2022-12-07T03:26:11;45.78;;;32.33;;
35084;SDS011;21267;51.032;6.998;2022-12-07T03:28:42;46.17;;;33.10;;
35084;SDS011;21267;51.032;6.998;2022-12-07T03:31:19;47.58;;;34.33;;
35084;SDS011;21267;51.032;6.998;2022-12-07T03:36:45;44.20;;;30.80;;
35084;SDS011;21267;51.032;6.998;2022-12-07T03:42:04;44.13;;;30.75;;
35084;SDS011;21267;51.032;6.998;2022-12-07T03:44:33;45.45;;;30.92;;
35084;SDS011;21267;51.032;6.998;2022-12-07T03:49:53;44.50;;;31.85;;
35084;SDS011;21267;51.032;6.998;2022-12-07T03:52:42;48.25;;;33.60;;
35084;SDS011;21267;51.032;6.998;2022-12-07T03:55:20;50.22;;;33.63;;
35084;SDS011;21267;51.032;6.998;2022-12-07T03:57:58;41.55;;;32.28;;
35084;SDS011;21267;51.032;6.998;2022-12-07T04:00:30;49.75;;;33.58;;
35084;SDS011;21267;51.032;6.998;2022-12-07T04:02:57;43.78;;;30.27;;
35084;SDS011;21267;51.032;6.998;2022-12-07T04:05:24;50.30;;;34.50;;
35084;SDS011;21267;51.032;6.998;2022-12-07T04:07:51;34.53;;;25.93;;
35084;SDS011;21267;51.032;6.998;2022-12-07T04:10:18;50.75;;;37.05;;
35084;SDS011;21267;51.032;6.998;2022-12-07T04:12:44;48.35;;;36.15;;
35084;SDS011;21267;51.032;6.998;2022-12-07T04:15:11;50.53;;;35.33;;
35084;SDS011;21267;51.032;6.998;2022-12-07T04:17:40;51.90;;;37.40;;
35084;SDS011;21267;51.032;6.998;2022-12-07T04:20:07;55.97;;;36.83;;
35084;SDS011;21267;51.032;6.998;2022-12-07T04:22:34;50.05;;;36.50;;
35084;SDS011;21267;51.032;6.998;2022-12-07T04:25:01;47.40;;;36.10;;
35084;SDS011;21267;51.032;6.998;2022-12-07T04:27:27;46.58;;;34.35;;
35084;SDS011;21267;51.032;6.998;2022-12-07T04:29:54;49.70;;;35.03;;
35084;SDS011;21267;51.032;6.998;2022-12-07T04:32:22;50.55;;;36.55;;
35084;SDS011;21267;51.032;6.998;2022-12-07T04:34:49;49.92;;;34.97;;
35084;SDS011;21267;51.032;6.998;2022-12-07T04:37:21;49.85;;;35.47;;
35084;SDS011;21267;51.032;6.998;2022-12-07T04:39:50;46.53;;;35.00;;
35084;SDS011;21267;51.032;6.998;2022-12-07T04:42:17;49.50;;;34.85;;
35084;SDS011;21267;51.032;6.998;2022-12-07T04:44:43;47.53;;;33.78;;
35084;SDS011;21267;51.032;6.998;2022-12-07T04:47:10;48.35;;;34.03;;
35084;SDS011;21267;51.032;6.998;2022-12-07T04:49:37;52.55;;;34.50;;
35084;SDS011;21267;51.032;6.998;2022-12-07T04:52:04;44.00;;;34.40;;
35084;SDS011;21267;51.032;6.998;2022-12-07T04:54:30;45.20;;;35.83;;
35084;SDS011;21267;51.032;6.998;2022-12-07T04:56:57;46.28;;;35.13;;
35084;SDS011;21267;51.032;6.998;2022-12-07T04:59:24;46.97;;;35.15;;
35084;SDS011;21267;51.032;6.998;2022-12-07T05:01:53;43.55;;;32.65;;
35084;SDS011;21267;51.032;6.998;2022-12-07T05:04:20;48.65;;;34.53;;
35084;SDS011;21267;51.032;6.998;2022-12-07T05:06:46;48.47;;;33.95;;
35084;SDS011;21267;51.032;6.998;2022-12-07T05:09:13;49.95;;;34.75;;
35084;SDS011;21267;51.032;6.998;2022-12-07T05:11:40;47.33;;;33.22;;
35084;SDS011;21267;51.032;6.998;2022-12-07T05:14:17;52.27;;;36.90;;
35084;SDS011;21267;51.032;6.998;2022-12-07T05:16:47;50.28;;;35.85;;
35084;SDS011;21267;51.032;6.998;2022-12-07T05:19:16;50.55;;;36.40;;
35084;SDS011;21267;51.032;6.998;2022-12-07T05:24:11;54.22;;;36.47;;
35084;SDS011;21267;51.032;6.998;2022-12-07T05:26:39;53.28;;;38.72;;
35084;SDS011;21267;51.032;6.998;2022-12-07T05:29:06;36.38;;;27.20;;
35084;SDS011;21267;51.032;6.998;2022-12-07T05:31:32;52.78;;;37.42;;
35084;SDS011;21267;51.032;6.998;2022-12-07T05:34:00;59.72;;;39.90;;
35084;SDS011;21267;51.032;6.998;2022-12-07T05:36:27;55.90;;;36.28;;
35084;SDS011;21267;51.032;6.998;2022-12-07T05:38:55;52.45;;;38.20;;
35084;SDS011;21267;51.032;6.998;2022-12-07T05:41:21;54.45;;;37.05;;
35084;SDS011;21267;51.032;6.998;2022-12-07T05:44:06;55.58;;;37.50;;
35084;SDS011;21267;51.032;6.998;2022-12-07T05:46:34;57.70;;;36.92;;
35084;SDS011;21267;51.032;6.998;2022-12-07T05:49:01;54.60;;;37.85;;
35084;SDS011;21267;51.032;6.998;2022-12-07T05:51:28;49.53;;;37.93;;
35084;SDS011;21267;51.032;6.998;2022-12-07T05:53:55;54.55;;;36.30;;
35084;SDS011;21267;51.032;6.998;2022-12-07T05:56:21;50.45;;;36.20;;
35084;SDS011;21267;51.032;6.998;2022-12-07T05:58:48;55.30;;;35.90;;
35084;SDS011;21267;51.032;6.998;2022-12-07T06:01:33;49.35;;;35.17;;
35084;SDS011;21267;51.032;6.998;2022-12-07T06:04:00;50.10;;;35.42;;
35084;SDS011;21267;51.032;6.998;2022-12-07T06:06:27;49.42;;;35.20;;
35084;SDS011;21267;51.032;6.998;2022-12-07T06:08:53;45.63;;;33.13;;
35084;SDS011;21267;51.032;6.998;2022-12-07T06:11:20;49.28;;;34.10;;
35084;SDS011;21267;51.032;6.998;2022-12-07T06:14:05;44.70;;;31.83;;
35084;SDS011;21267;51.032;6.998;2022-12-07T06:16:32;46.30;;;30.08;;
35084;SDS011;21267;51.032;6.998;2022-12-07T06:18:59;42.97;;;29.45;;
35084;SDS011;21267;51.032;6.998;2022-12-07T06:21:25;42.83;;;30.35;;
35084;SDS011;21267;51.032;6.998;2022-12-07T06:23:54;43.50;;;30.73;;
35084;SDS011;21267;51.032;6.998;2022-12-07T06:26:21;42.83;;;30.48;;
35084;SDS011;21267;51.032;6.998;2022-12-07T06:28:48;41.78;;;30.02;;
35084;SDS011;21267;51.032;6.998;2022-12-07T06:31:15;45.57;;;30.90;;
35084;SDS011;21267;51.032;6.998;2022-12-07T06:33:43;43.22;;;30.15;;
35084;SDS011;21267;51.032;6.998;2022-12-07T06:36:10;41.55;;;29.88;;
35084;SDS011;21267;51.032;6.998;2022-12-07T06:38:40;45.63;;;31.23;;
35084;SDS011;21267;51.032;6.998;2022-12-07T06:41:10;39.53;;;29.50;;
35084;SDS011;21267;51.032;6.998;2022-12-07T06:43:37;45.10;;;28.48;;
35084;SDS011;21267;51.032;6.998;2022-12-07T06:46:04;45.20;;;30.20;;
35084;SDS011;21267;51.032;6.998;2022-12-07T06:48:34;42.63;;;29.13;;
35084;SDS011;21267;51.032;6.998;2022-12-07T06:51:06;42.40;;;28.67;;
35084;SDS011;21267;51.032;6.998;2022-12-07T06:53:40;42.55;;;29.15;;
35084;SDS011;21267;51.032;6.998;2022-12-07T06:56:06;44.22;;;30.35;;
35084;SDS011;21267;51.032;6.998;2022-12-07T06:58:34;42.57;;;29.83;;
35084;SDS011;21267;51.032;6.998;2022-12-07T07:01:01;38.90;;;26.13;;
35084;SDS011;21267;51.032;6.998;2022-12-07T07:03:29;42.47;;;30.77;;
35084;SDS011;21267;51.032;6.998;2022-12-07T07:05:57;44.83;;;31.25;;
35084;SDS011;21267;51.032;6.998;2022-12-07T07:08:28;44.83;;;30.75;;
35084;SDS011;21267;51.032;6.998;2022-12-07T07:10:58;44.88;;;30.15;;
35084;SDS011;21267;51.032;6.998;2022-12-07T07:13:25;41.25;;;30.05;;
35084;SDS011;21267;51.032;6.998;2022-12-07T07:15:53;49.70;;;34.25;;
35084;SDS011;21267;51.032;6.998;2022-12-07T07:18:20;50.90;;;34.60;;
35084;SDS011;21267;51.032;6.998;2022-12-07T07:20:47;48.43;;;35.13;;
35084;SDS011;21267;51.032;6.998;2022-12-07T07:23:14;48.88;;;31.55;;
35084;SDS011;21267;51.032;6.998;2022-12-07T07:25:40;48.67;;;33.15;;
35084;SDS011;21267;51.032;6.998;2022-12-07T07:28:07;47.92;;;32.58;;
35084;SDS011;21267;51.032;6.998;2022-12-07T07:33:37;39.13;;;29.67;;
35084;SDS011;21267;51.032;6.998;2022-12-07T07:36:07;45.17;;;29.55;;
35084;SDS011;21267;51.032;6.998;2022-12-07T07:41:27;37.63;;;27.45;;
35084;SDS011;21267;51.032;6.998;2022-12-07T07:43:57;40.42;;;28.45;;
35084;SDS011;21267;51.032;6.998;2022-12-07T07:46:37;39.72;;;28.85;;
35084;SDS011;21267;51.032;6.998;2022-12-07T07:49:06;39.40;;;28.00;;
35084;SDS011;21267;51.032;6.998;2022-12-07T07:51:42;32.38;;;20.80;;
35084;SDS011;21267;51.032;6.998;2022-12-07T07:54:09;38.65;;;27.35;;
35084;SDS011;21267;51.032;6.998;2022-12-07T07:56:53;40.42;;;25.80;;
35084;SDS011;21267;51.032;6.998;2022-12-07T07:59:28;37.55;;;27.20;;
35084;SDS011;21267;51.032;6.998;2022-12-07T08:02:03;40.00;;;25.15;;
35084;SDS011;21267;51.032;6.998;2022-12-07T08:04:30;39.63;;;27.58;;
35084;SDS011;21267;51.032;6.998;2022-12-07T08:06:58;38.92;;;27.00;;
35084;SDS011;21267;51.032;6.998;2022-12-07T08:09:24;38.05;;;25.73;;
35084;SDS011;21267;51.032;6.998;2022-12-07T08:11:51;39.40;;;25.48;;
35084;SDS011;21267;51.032;6.998;2022-12-07T08:14:18;27.75;;;19.20;;
35084;SDS011;21267;51.032;6.998;2022-12-07T08:16:46;36.30;;;26.23;;
35084;SDS011;21267;51.032;6.998;2022-12-07T08:19:19;34.33;;;22.75;;
35084;SDS011;21267;51.032;6.998;2022-12-07T08:21:55;39.00;;;26.25;;
35084;SDS011;21267;51.032;6.998;2022-12-07T08:24:26;40.47;;;29.15;;
35084;SDS011;21267;51.032;6.998;2022-12-07T08:27:10;30.17;;;21.13;;
35084;SDS011;21267;51.032;6.998;2022-12-07T08:29:36;39.90;;;26.38;;
35084;SDS011;21267;51.032;6.998;2022-12-07T08:32:17;37.88;;;26.98;;
35084;SDS011;21267;51.032;6.998;2022-12-07T08:34:49;34.08;;;23.30;;
35084;SDS011;21267;51.032;6.998;2022-12-07T08:37:18;41.20;;;27.40;;
35084;SDS011;21267;51.032;6.998;2022-12-07T08:39:46;37.83;;;25.10;;
35084;SDS011;21267;51.032;6.998;2022-12-07T08:42:17;34.22;;;25.45;;
35084;SDS011;21267;51.032;6.998;2022-12-07T08:44:59;30.67;;;24.50;;
35084;SDS011;21267;51.032;6.998;2022-12-07T08:47:25;31.92;;;24.45;;
35084;SDS011;21267;51.032;6.998;2022-12-07T08:49:54;34.03;;;26.83;;
35084;SDS011;21267;51.032;6.998;2022-12-07T08:52:36;32.25;;;24.58;;
35084;SDS011;21267;51.032;6.998;2022-12-07T08:55:10;32.58;;;22.27;;
35084;SDS011;21267;51.032;6.998;2022-12-07T08:57:39;33.70;;;23.77;;
35084;SDS011;21267;51.032;6.998;2022-12-07T09:00:14;32.08;;;24.77;;
35084;SDS011;21267;51.032;6.998;2022-12-07T09:02:46;34.78;;;22.73;;
35084;SDS011;21267;51.032;6.998;2022-12-07T09:05:16;32.33;;;24.33;;
35084;SDS011;21267;51.032;6.998;2022-12-07T09:07:43;32.78;;;21.02;;
35084;SDS011;21267;51.032;6.998;2022-12-07T09:10:12;30.75;;;23.45;;
35084;SDS011;21267;51.032;6.998;2022-12-07T09:12:38;28.25;;;21.42;;
35084;SDS011;21267;51.032;6.998;2022-12-07T09:15:05;33.70;;;21.25;;
35084;SDS011;21267;51.032;6.998;2022-12-07T09:17:33;33.30;;;22.40;;
35084;SDS011;21267;51.032;6.998;2022-12-07T09:20:00;22.73;;;18.63;;
35084;SDS011;21267;51.032;6.998;2022-12-07T09:22:32;23.52;;;20.52;;
35084;SDS011;21267;51.032;6.998;2022-12-07T09:25:02;31.33;;;19.58;;
35084;SDS011;21267;51.032;6.998;2022-12-07T09:33:52;27.63;;;19.83;;
35084;SDS011;21267;51.032;6.998;2022-12-07T09:36:51;21.67;;;15.75;;
35084;SDS011;21267;51.032;6.998;2022-12-07T09:39:32;23.08;;;16.80;;
35084;SDS011;21267;51.032;6.998;2022-12-07T09:49:15;26.95;;;19.30;;
35084;SDS011;21267;51.032;6.998;2022-12-07T09:51:46;22.20;;;17.60;;
35084;SDS011;21267;51.032;6.998;2022-12-07T09:54:41;23.67;;;16.52;;
35084;SDS011;21267;51.032;6.998;2022-12-07T09:57:12;24.60;;;16.70;;
35084;SDS011;21267;51.032;6.998;2022-12-07T10:00:15;23.60;;;16.02;;
35084;SDS011;21267;51.032;6.998;2022-12-07T10:02:53;25.52;;;16.75;;
35084;SDS011;21267;51.032;6.998;2022-12-07T10:05:28;23.70;;;15.65;;
35084;SDS011;21267;51.032;6.998;2022-12-07T10:08:31;23.30;;;17.00;;
35084;SDS011;21267;51.032;6.998;2022-12-07T10:10:54;21.02;;;15.00;;
35084;SDS011;21267;51.032;6.998;2022-12-07T10:13:34;24.07;;;16.63;;
35084;SDS011;21267;51.032;6.998;2022-12-07T10:19:45;21.73;;;15.32;;
35084;SDS011;21267;51.032;6.998;2022-12-07T10:22:14;17.15;;;13.80;;
35084;SDS011;21267;51.032;6.998;2022-12-07T10:24:46;18.25;;;11.93;;
35084;SDS011;21267;51.032;6.998;2022-12-07T10:27:20;16.70;;;12.65;;
35084;SDS011;21267;51.032;6.998;2022-12-07T10:29:52;16.20;;;10.35;;
35084;SDS011;21267;51.032;6.998;2022-12-07T10:34:47;16.23;;;10.33;;
35084;SDS011;21267;51.032;6.998;2022-12-07T10:37:19;14.82;;;9.13;;
35084;SDS011;21267;51.032;6.998;2022-12-07T10:40:23;12.85;;;6.57;;
35084;SDS011;21267;51.032;6.998;2022-12-07T10:43:28;17.67;;;12.52;;
35084;SDS011;21267;51.032;6.998;2022-12-07T10:52:31;16.52;;;10.05;;
35084;SDS011;21267;51.032;6.998;2022-12-07T10:55:42;15.02;;;8.57;;
35084;SDS011;21267;51.032;6.998;2022-12-07T10:58:43;7.60;;;5.00;;
35084;SDS011;21267;51.032;6.998;2022-12-07T11:04:28;16.08;;;8.48;;
35084;SDS011;21267;51.032;6.998;2022-12-07T11:11:26;15.18;;;7.40;;
35084;SDS011;21267;51.032;6.998;2022-12-07T11:13:56;17.40;;;8.32;;
35084;SDS011;21267;51.032;6.998;2022-12-07T11:34:31;8.63;;;5.97;;
35084;SDS011;21267;51.032;6.998;2022-12-07T11:54:35;18.70;;;10.85;;
35084;SDS011;21267;51.032;6.998;2022-12-07T12:00:39;20.55;;;10.57;;
35084;SDS011;21267;51.032;6.998;2022-12-07T12:03:12;13.68;;;9.70;;
35084;SDS011;21267;51.032;6.998;2022-12-07T12:06:14;13.55;;;7.78;;
35084;SDS011;21267;51.032;6.998;2022-12-07T12:22:12;10.25;;;5.22;;
35084;SDS011;21267;51.032;6.998;2022-12-07T12:24:43;11.10;;;5.32;;
35084;SDS011;21267;51.032;6.998;2022-12-07T12:27:18;13.48;;;7.10;;
35084;SDS011;21267;51.032;6.998;2022-12-07T12:29:55;11.43;;;7.80;;
35084;SDS011;21267;51.032;6.998;2022-12-07T12:37:54;9.98;;;7.95;;
35084;SDS011;21267;51.032;6.998;2022-12-07T12:42:56;13.80;;;9.32;;
35084;SDS011;21267;51.032;6.998;2022-12-07T12:45:27;13.10;;;8.40;;
35084;SDS011;21267;51.032;6.998;2022-12-07T12:47:56;7.95;;;5.10;;
35084;SDS011;21267;51.032;6.998;2022-12-07T12:53:37;11.57;;;6.85;;
35084;SDS011;21267;51.032;6.998;2022-12-07T13:01:47;10.57;;;7.10;;
35084;SDS011;21267;51.032;6.998;2022-12-07T13:04:24;11.15;;;7.30;;
35084;SDS011;21267;51.032;6.998;2022-12-07T13:06:53;13.75;;;8.25;;
35084;SDS011;21267;51.032;6.998;2022-12-07T13:09:21;14.82;;;8.52;;
35084;SDS011;21267;51.032;6.998;2022-12-07T13:11:54;13.52;;;8.20;;
35084;SDS011;21267;51.032;6.998;2022-12-07T13:14:35;14.20;;;9.45;;
35084;SDS011;21267;51.032;6.998;2022-12-07T13:17:08;12.85;;;8.15;;
35084;SDS011;21267;51.032;6.998;2022-12-07T13:19:55;15.75;;;9.57;;
35084;SDS011;21267;51.032;6.998;2022-12-07T13:27:48;9.50;;;4.13;;
35084;SDS011;21267;51.032;6.998;2022-12-07T13:30:21;10.07;;;6.03;;
35084;SDS011;21267;51.032;6.998;2022-12-07T13:32:52;8.70;;;5.17;;
35084;SDS011;21267;51.032;6.998;2022-12-07T13:38:28;8.23;;;5.45;;
35084;SDS011;21267;51.032;6.998;2022-12-07T13:43:27;12.98;;;5.15;;
35084;SDS011;21267;51.032;6.998;2022-12-07T13:45:57;14.25;;;6.93;;
35084;SDS011;21267;51.032;6.998;2022-12-07T13:50:59;9.98;;;5.22;;
35084;SDS011;21267;51.032;6.998;2022-12-07T13:53:27;17.52;;;7.75;;
35084;SDS011;21267;51.032;6.998;2022-12-07T13:55:57;11.32;;;6.22;;
35084;SDS011;21267;51.032;6.998;2022-12-07T13:58:25;11.80;;;6.80;;
35084;SDS011;21267;51.032;6.998;2022-12-07T14:00:56;8.05;;;5.78;;
35084;SDS011;21267;51.032;6.998;2022-12-07T14:03:33;10.57;;;6.33;;
35084;SDS011;21267;51.032;6.998;2022-12-07T14:08:41;14.50;;;6.10;;
35084;SDS011;21267;51.032;6.998;2022-12-07T14:11:13;9.38;;;5.68;;
35084;SDS011;21267;51.032;6.998;2022-12-07T14:18:57;9.10;;;4.38;;
35084;SDS011;21267;51.032;6.998;2022-12-07T14:21:26;14.00;;;6.65;;
35084;SDS011;21267;51.032;6.998;2022-12-07T14:26:45;12.40;;;5.88;;
35084;SDS011;21267;51.032;6.998;2022-12-07T14:31:52;13.30;;;6.15;;
35084;SDS011;21267;51.032;6.998;2022-12-07T14:34:21;13.38;;;7.57;;
35084;SDS011;21267;51.032;6.998;2022-12-07T14:36:48;19.00;;;8.25;;
35084;SDS011;21267;51.032;6.998;2022-12-07T14:39:15;12.68;;;6.85;;
35084;SDS011;21267;51.032;6.998;2022-12-07T14:41:41;15.93;;;7.80;;
35084;SDS011;21267;51.032;6.998;2022-12-07T14:44:18;19.65;;;8.15;;
35084;SDS011;21267;51.032;6.998;2022-12-07T14:46:50;12.95;;;7.47;;
35084;SDS011;21267;51.032;6.998;2022-12-07T14:49:37;18.65;;;7.90;;
35084;SDS011;21267;51.032;6.998;2022-12-07T14:52:04;14.40;;;7.87;;
35084;SDS011;21267;51.032;6.998;2022-12-07T14:54:55;14.10;;;8.85;;
35084;SDS011;21267;51.032;6.998;2022-12-07T14:57:22;13.52;;;9.23;;
35084;SDS011;21267;51.032;6.998;2022-12-07T14:59:49;16.83;;;9.23;;
35084;SDS011;21267;51.032;6.998;2022-12-07T15:02:16;12.90;;;8.65;;
35084;SDS011;21267;51.032;6.998;2022-12-07T15:04:43;15.80;;;9.75;;
35084;SDS011;21267;51.032;6.998;2022-12-07T15:07:14;21.55;;;10.60;;
35084;SDS011;21267;51.032;6.998;2022-12-07T15:09:45;18.63;;;11.32;;
35084;SDS011;21267;51.032;6.998;2022-12-07T15:12:16;23.30;;;11.30;;
35084;SDS011;21267;51.032;6.998;2022-12-07T15:14:42;21.80;;;11.50;;
35084;SDS011;21267;51.032;6.998;2022-12-07T15:17:10;19.23;;;11.43;;
35084;SDS011;21267;51.032;6.998;2022-12-07T15:19:54;11.73;;;7.38;;
35084;SDS011;21267;51.032;6.998;2022-12-07T15:22:21;18.58;;;10.75;;
35084;SDS011;21267;51.032;6.998;2022-12-07T15:24:48;20.67;;;11.23;;
35084;SDS011;21267;51.032;6.998;2022-12-07T15:27:17;22.92;;;12.40;;
35084;SDS011;21267;51.032;6.998;2022-12-07T15:29:44;20.38;;;10.55;;
35084;SDS011;21267;51.032;6.998;2022-12-07T15:32:11;11.00;;;6.22;;
35084;SDS011;21267;51.032;6.998;2022-12-07T15:34:37;8.48;;;5.00;;
35084;SDS011;21267;51.032;6.998;2022-12-07T15:37:06;5.93;;;2.90;;
35084;SDS011;21267;51.032;6.998;2022-12-07T15:39:33;8.23;;;4.70;;
35084;SDS011;21267;51.032;6.998;2022-12-07T15:42:02;8.95;;;4.57;;
35084;SDS011;21267;51.032;6.998;2022-12-07T15:44:29;6.90;;;3.58;;
35084;SDS011;21267;51.032;6.998;2022-12-07T15:47:14;9.40;;;3.92;;
35084;SDS011;21267;51.032;6.998;2022-12-07T15:49:41;10.40;;;4.32;;
35084;SDS011;21267;51.032;6.998;2022-12-07T15:52:07;7.88;;;4.65;;
35084;SDS011;21267;51.032;6.998;2022-12-07T15:54:34;8.25;;;5.40;;
35084;SDS011;21267;51.032;6.998;2022-12-07T15:57:03;7.13;;;4.88;;
35084;SDS011;21267;51.032;6.998;2022-12-07T15:59:29;7.30;;;4.20;;
35084;SDS011;21267;51.032;6.998;2022-12-07T16:01:56;10.65;;;4.97;;
35084;SDS011;21267;51.032;6.998;2022-12-07T16:04:23;9.40;;;5.13;;
35084;SDS011;21267;51.032;6.998;2022-12-07T16:06:50;8.50;;;5.30;;
35084;SDS011;21267;51.032;6.998;2022-12-07T16:09:17;8.07;;;5.83;;
35084;SDS011;21267;51.032;6.998;2022-12-07T16:11:44;13.82;;;8.48;;
35084;SDS011;21267;51.032;6.998;2022-12-07T16:14:11;10.45;;;7.05;;
35084;SDS011;21267;51.032;6.998;2022-12-07T16:16:37;9.30;;;6.82;;
35084;SDS011;21267;51.032;6.998;2022-12-07T16:19:06;12.35;;;7.05;;
35084;SDS011;21267;51.032;6.998;2022-12-07T16:21:34;12.10;;;8.35;;
35084;SDS011;21267;51.032;6.998;2022-12-07T16:24:01;11.57;;;7.57;;
35084;SDS011;21267;51.032;6.998;2022-12-07T16:26:29;10.63;;;8.40;;
35084;SDS011;21267;51.032;6.998;2022-12-07T16:28:55;7.18;;;6.47;;
35084;SDS011;21267;51.032;6.998;2022-12-07T16:31:23;12.50;;;7.45;;
35084;SDS011;21267;51.032;6.998;2022-12-07T16:33:56;11.90;;;8.52;;
35084;SDS011;21267;51.032;6.998;2022-12-07T16:36:24;11.52;;;6.55;;
35084;SDS011;21267;51.032;6.998;2022-12-07T16:39:12;9.05;;;7.00;;
35084;SDS011;21267;51.032;6.998;2022-12-07T16:41:39;9.23;;;7.15;;
35084;SDS011;21267;51.032;6.998;2022-12-07T16:44:07;12.52;;;8.45;;
35084;SDS011;21267;51.032;6.998;2022-12-07T16:46:36;12.15;;;8.77;;
35084;SDS011;21267;51.032;6.998;2022-12-07T16:49:03;13.10;;;8.63;;
35084;SDS011;21267;51.032;6.998;2022-12-07T16:51:30;10.47;;;8.43;;
35084;SDS011;21267;51.032;6.998;2022-12-07T16:53:57;13.77;;;8.43;;
35084;SDS011;21267;51.032;6.998;2022-12-07T16:56:25;10.35;;;7.68;;
35084;SDS011;21267;51.032;6.998;2022-12-07T16:58:53;14.20;;;9.65;;
35084;SDS011;21267;51.032;6.998;2022-12-07T17:01:20;12.35;;;9.57;;
35084;SDS011;21267;51.032;6.998;2022-12-07T17:03:49;14.57;;;9.68;;
35084;SDS011;21267;51.032;6.998;2022-12-07T17:06:16;10.77;;;8.60;;
35084;SDS011;21267;51.032;6.998;2022-12-07T17:08:48;12.57;;;10.60;;
35084;SDS011;21267;51.032;6.998;2022-12-07T17:11:20;14.00;;;10.07;;
35084;SDS011;21267;51.032;6.998;2022-12-07T17:13:48;13.80;;;9.98;;
35084;SDS011;21267;51.032;6.998;2022-12-07T17:16:34;14.68;;;10.13;;
35084;SDS011;21267;51.032;6.998;2022-12-07T17:19:05;15.67;;;10.73;;
35084;SDS011;21267;51.032;6.998;2022-12-07T17:21:33;13.68;;;11.13;;
35084;SDS011;21267;51.032;6.998;2022-12-07T17:24:00;14.23;;;10.38;;
35084;SDS011;21267;51.032;6.998;2022-12-07T17:26:29;11.50;;;8.55;;
35084;SDS011;21267;51.032;6.998;2022-12-07T17:29:01;14.73;;;10.57;;
35084;SDS011;21267;51.032;6.998;2022-12-07T17:33:55;14.32;;;9.05;;
35084;SDS011;21267;51.032;6.998;2022-12-07T17:36:23;17.40;;;12.95;;
35084;SDS011;21267;51.032;6.998;2022-12-07T17:38:51;19.45;;;13.75;;
35084;SDS011;21267;51.032;6.998;2022-12-07T17:41:22;19.57;;;11.97;;
35084;SDS011;21267;51.032;6.998;2022-12-07T17:44:11;19.27;;;12.82;;
35084;SDS011;21267;51.032;6.998;2022-12-07T17:46:38;15.75;;;12.02;;
35084;SDS011;21267;51.032;6.998;2022-12-07T17:49:06;17.92;;;12.40;;
35084;SDS011;21267;51.032;6.998;2022-12-07T17:51:32;29.53;;;14.13;;
35084;SDS011;21267;51.032;6.998;2022-12-07T17:54:18;23.50;;;15.52;;
35084;SDS011;21267;51.032;6.998;2022-12-07T17:56:45;14.93;;;12.80;;
35084;SDS011;21267;51.032;6.998;2022-12-07T17:59:12;19.00;;;13.00;;
35084;SDS011;21267;51.032;6.998;2022-12-07T18:01:40;17.07;;;13.30;;
35084;SDS011;21267;51.032;6.998;2022-12-07T18:04:07;16.38;;;13.32;;